Terminal Aerodrome Forecast
Issued by NWS

Home | Current Version | Previous Version | Text Only | Print | Product List | Glossary On
Versions: 1 2 3 4 5 6 7 8 9 10 11 12 13 14 15 16 17 18 19 20 21 22 23 24 25 26
634
FTUS46 KMFR 070533
TAFRBG
TAF
KRBG 070533Z 0706/0806 00000KT 5SM BR BKN007 OVC035
      TEMPO 0706/0709 P6SM NSW SCT007 OVC035
     FM070900 00000KT 2SM BR OVC004
     FM071300 00000KT 1/2SM FG OVC002
     FM071900 VRB02KT 4SM BR BKN006
     FM072000 VRB03KT P6SM FEW010
     FM080400 00000KT P6SM BKN007=

USA.gov is the U.S. government's official web portal to all federal, state and local government web resources and services.